sensor_id;sensor_type;location;lat;lon;timestamp;temperature;humidity
66140;DHT22;52945;51.908;8.364;2024-01-30T00:00:59;8.70;66.00
66140;DHT22;52945;51.908;8.364;2024-01-30T00:03:59;8.70;65.90
66140;DHT22;52945;51.908;8.364;2024-01-30T00:07:03;8.70;66.10
66140;DHT22;52945;51.908;8.364;2024-01-30T00:10:04;8.60;66.10
66140;DHT22;52945;51.908;8.364;2024-01-30T00:13:06;8.70;66.30
66140;DHT22;52945;51.908;8.364;2024-01-30T00:16:07;8.60;66.40
66140;DHT22;52945;51.908;8.364;2024-01-30T00:19:09;8.60;66.60
66140;DHT22;52945;51.908;8.364;2024-01-30T00:22:10;8.60;66.60
66140;DHT22;52945;51.908;8.364;2024-01-30T00:25:11;8.60;66.60
66140;DHT22;52945;51.908;8.364;2024-01-30T00:28:11;8.60;66.50
66140;DHT22;52945;51.908;8.364;2024-01-30T00:31:12;8.60;66.50
66140;DHT22;52945;51.908;8.364;2024-01-30T00:34:12;8.60;66.60
66140;DHT22;52945;51.908;8.364;2024-01-30T00:37:13;8.60;66.40
66140;DHT22;52945;51.908;8.364;2024-01-30T00:40:13;8.60;66.30
66140;DHT22;52945;51.908;8.364;2024-01-30T00:43:16;8.60;66.40
66140;DHT22;52945;51.908;8.364;2024-01-30T00:46:16;8.60;66.60
66140;DHT22;52945;51.908;8.364;2024-01-30T00:49:17;8.60;66.70
66140;DHT22;52945;51.908;8.364;2024-01-30T00:52:18;8.50;66.90
66140;DHT22;52945;51.908;8.364;2024-01-30T00:55:18;8.50;66.80
66140;DHT22;52945;51.908;8.364;2024-01-30T00:58:19;8.50;66.90
66140;DHT22;52945;51.908;8.364;2024-01-30T01:01:20;8.50;66.70
66140;DHT22;52945;51.908;8.364;2024-01-30T01:04:20;8.50;66.90
66140;DHT22;52945;51.908;8.364;2024-01-30T01:07:21;8.50;66.80
66140;DHT22;52945;51.908;8.364;2024-01-30T01:10:22;8.40;67.00
66140;DHT22;52945;51.908;8.364;2024-01-30T01:13:23;8.50;67.00
66140;DHT22;52945;51.908;8.364;2024-01-30T01:16:23;8.40;66.90
66140;DHT22;52945;51.908;8.364;2024-01-30T01:19:24;8.40;67.00
66140;DHT22;52945;51.908;8.364;2024-01-30T01:22:24;8.40;66.90
66140;DHT22;52945;51.908;8.364;2024-01-30T01:25:25;8.40;67.10
66140;DHT22;52945;51.908;8.364;2024-01-30T01:28:25;8.30;67.10
66140;DHT22;52945;51.908;8.364;2024-01-30T01:31:26;8.30;67.20
66140;DHT22;52945;51.908;8.364;2024-01-30T01:34:29;8.30;67.30
66140;DHT22;52945;51.908;8.364;2024-01-30T01:37:30;8.30;67.40
66140;DHT22;52945;51.908;8.364;2024-01-30T01:40:31;8.20;67.80
66140;DHT22;52945;51.908;8.364;2024-01-30T01:43:31;8.20;68.40
66140;DHT22;52945;51.908;8.364;2024-01-30T01:46:33;8.10;69.00
66140;DHT22;52945;51.908;8.364;2024-01-30T01:49:34;8.20;69.50
66140;DHT22;52945;51.908;8.364;2024-01-30T01:52:36;8.10;69.90
66140;DHT22;52945;51.908;8.364;2024-01-30T01:55:37;8.10;70.20
66140;DHT22;52945;51.908;8.364;2024-01-30T01:58:38;8.00;70.30
66140;DHT22;52945;51.908;8.364;2024-01-30T02:01:39;8.00;70.50
66140;DHT22;52945;51.908;8.364;2024-01-30T02:04:46;8.00;70.70
66140;DHT22;52945;51.908;8.364;2024-01-30T02:07:47;8.00;70.80
66140;DHT22;52945;51.908;8.364;2024-01-30T02:10:47;8.00;70.90
66140;DHT22;52945;51.908;8.364;2024-01-30T02:13:49;7.90;71.00
66140;DHT22;52945;51.908;8.364;2024-01-30T02:16:49;8.00;71.10
66140;DHT22;52945;51.908;8.364;2024-01-30T02:19:50;8.00;71.10
66140;DHT22;52945;51.908;8.364;2024-01-30T02:22:55;7.90;71.30
66140;DHT22;52945;51.908;8.364;2024-01-30T02:25:56;7.90;71.10
66140;DHT22;52945;51.908;8.364;2024-01-30T02:28:56;8.00;70.90
66140;DHT22;52945;51.908;8.364;2024-01-30T02:31:58;8.00;70.90
66140;DHT22;52945;51.908;8.364;2024-01-30T02:34:59;8.10;70.50
66140;DHT22;52945;51.908;8.364;2024-01-30T02:38:00;8.10;70.30
66140;DHT22;52945;51.908;8.364;2024-01-30T02:41:01;8.10;70.30
66140;DHT22;52945;51.908;8.364;2024-01-30T02:44:02;8.10;70.30
66140;DHT22;52945;51.908;8.364;2024-01-30T02:47:03;8.10;70.30
66140;DHT22;52945;51.908;8.364;2024-01-30T02:50:04;8.00;70.40
66140;DHT22;52945;51.908;8.364;2024-01-30T02:53:05;8.10;70.40
66140;DHT22;52945;51.908;8.364;2024-01-30T02:56:05;8.00;70.40
66140;DHT22;52945;51.908;8.364;2024-01-30T02:59:10;8.10;70.50
66140;DHT22;52945;51.908;8.364;2024-01-30T03:02:10;8.00;70.50
66140;DHT22;52945;51.908;8.364;2024-01-30T03:05:11;8.00;70.60
66140;DHT22;52945;51.908;8.364;2024-01-30T03:08:12;7.90;71.00
66140;DHT22;52945;51.908;8.364;2024-01-30T03:11:12;7.90;71.50
66140;DHT22;52945;51.908;8.364;2024-01-30T03:14:13;7.90;71.60
66140;DHT22;52945;51.908;8.364;2024-01-30T03:17:13;8.00;71.40
66140;DHT22;52945;51.908;8.364;2024-01-30T03:20:14;7.80;71.50
66140;DHT22;52945;51.908;8.364;2024-01-30T03:23:15;7.90;71.50
66140;DHT22;52945;51.908;8.364;2024-01-30T03:26:15;7.90;71.70
66140;DHT22;52945;51.908;8.364;2024-01-30T03:29:16;7.90;71.90
66140;DHT22;52945;51.908;8.364;2024-01-30T03:32:17;7.90;72.00
66140;DHT22;52945;51.908;8.364;2024-01-30T03:35:19;7.90;72.00
66140;DHT22;52945;51.908;8.364;2024-01-30T03:38:19;7.80;72.10
66140;DHT22;52945;51.908;8.364;2024-01-30T03:41:20;7.90;72.10
66140;DHT22;52945;51.908;8.364;2024-01-30T03:44:20;7.80;72.10
66140;DHT22;52945;51.908;8.364;2024-01-30T03:47:21;7.90;72.00
66140;DHT22;52945;51.908;8.364;2024-01-30T03:50:22;7.80;72.00
66140;DHT22;52945;51.908;8.364;2024-01-30T03:53:22;7.80;72.20
66140;DHT22;52945;51.908;8.364;2024-01-30T03:56:23;7.80;72.10
66140;DHT22;52945;51.908;8.364;2024-01-30T03:59:26;7.80;72.20
66140;DHT22;52945;51.908;8.364;2024-01-30T04:02:26;7.80;72.20
66140;DHT22;52945;51.908;8.364;2024-01-30T04:05:27;7.80;72.20
66140;DHT22;52945;51.908;8.364;2024-01-30T04:08:27;7.80;72.30
66140;DHT22;52945;51.908;8.364;2024-01-30T04:11:28;7.80;72.20
66140;DHT22;52945;51.908;8.364;2024-01-30T04:14:28;7.80;72.20
66140;DHT22;52945;51.908;8.364;2024-01-30T04:17:29;7.90;72.10
66140;DHT22;52945;51.908;8.364;2024-01-30T04:20:30;7.90;71.70
66140;DHT22;52945;51.908;8.364;2024-01-30T04:23:30;8.00;71.30
66140;DHT22;52945;51.908;8.364;2024-01-30T04:26:31;7.90;71.30
66140;DHT22;52945;51.908;8.364;2024-01-30T04:29:31;7.90;71.50
66140;DHT22;52945;51.908;8.364;2024-01-30T04:32:33;7.90;71.50
66140;DHT22;52945;51.908;8.364;2024-01-30T04:35:33;7.90;71.40
66140;DHT22;52945;51.908;8.364;2024-01-30T04:38:34;7.90;71.10
66140;DHT22;52945;51.908;8.364;2024-01-30T04:41:35;7.90;71.10
66140;DHT22;52945;51.908;8.364;2024-01-30T04:44:35;7.90;71.10
66140;DHT22;52945;51.908;8.364;2024-01-30T04:47:36;7.90;70.70
66140;DHT22;52945;51.908;8.364;2024-01-30T04:50:36;7.90;70.70
66140;DHT22;52945;51.908;8.364;2024-01-30T04:53:37;7.90;70.60
66140;DHT22;52945;51.908;8.364;2024-01-30T04:56:39;7.90;70.50
66140;DHT22;52945;51.908;8.364;2024-01-30T04:59:40;7.90;70.40
66140;DHT22;52945;51.908;8.364;2024-01-30T05:02:40;7.90;70.20
66140;DHT22;52945;51.908;8.364;2024-01-30T05:05:41;7.90;70.30
66140;DHT22;52945;51.908;8.364;2024-01-30T05:08:41;7.80;70.20
66140;DHT22;52945;51.908;8.364;2024-01-30T05:11:42;7.80;70.10
66140;DHT22;52945;51.908;8.364;2024-01-30T05:14:43;7.90;70.00
66140;DHT22;52945;51.908;8.364;2024-01-30T05:17:43;7.80;69.90
66140;DHT22;52945;51.908;8.364;2024-01-30T05:20:44;7.80;70.20
66140;DHT22;52945;51.908;8.364;2024-01-30T05:23:44;7.70;70.50
66140;DHT22;52945;51.908;8.364;2024-01-30T05:26:45;7.70;70.70
66140;DHT22;52945;51.908;8.364;2024-01-30T05:29:46;7.60;71.10
66140;DHT22;52945;51.908;8.364;2024-01-30T05:32:48;7.60;71.60
66140;DHT22;52945;51.908;8.364;2024-01-30T05:35:49;7.70;71.20
66140;DHT22;52945;51.908;8.364;2024-01-30T05:38:50;7.60;71.60
66140;DHT22;52945;51.908;8.364;2024-01-30T05:41:51;7.60;72.10
66140;DHT22;52945;51.908;8.364;2024-01-30T05:44:51;7.60;72.10
66140;DHT22;52945;51.908;8.364;2024-01-30T05:47:52;7.70;71.90
66140;DHT22;52945;51.908;8.364;2024-01-30T05:50:54;7.60;71.70
66140;DHT22;52945;51.908;8.364;2024-01-30T05:53:55;7.60;71.90
66140;DHT22;52945;51.908;8.364;2024-01-30T05:56:55;7.60;72.30
66140;DHT22;52945;51.908;8.364;2024-01-30T05:59:56;7.60;72.60
66140;DHT22;52945;51.908;8.364;2024-01-30T06:02:56;7.50;73.10
66140;DHT22;52945;51.908;8.364;2024-01-30T06:05:57;7.50;73.50
66140;DHT22;52945;51.908;8.364;2024-01-30T06:08:58;7.50;73.70
66140;DHT22;52945;51.908;8.364;2024-01-30T06:11:58;7.50;73.80
66140;DHT22;52945;51.908;8.364;2024-01-30T06:14:59;7.50;73.80
66140;DHT22;52945;51.908;8.364;2024-01-30T06:18:00;7.50;74.00
66140;DHT22;52945;51.908;8.364;2024-01-30T06:21:00;7.60;74.00
66140;DHT22;52945;51.908;8.364;2024-01-30T06:24:01;7.60;73.50
66140;DHT22;52945;51.908;8.364;2024-01-30T06:27:01;7.60;73.10
66140;DHT22;52945;51.908;8.364;2024-01-30T06:30:02;7.60;72.70
66140;DHT22;52945;51.908;8.364;2024-01-30T06:33:03;7.60;72.50
66140;DHT22;52945;51.908;8.364;2024-01-30T06:36:04;7.60;72.80
66140;DHT22;52945;51.908;8.364;2024-01-30T06:39:05;7.60;72.50
66140;DHT22;52945;51.908;8.364;2024-01-30T06:42:06;7.60;72.00
66140;DHT22;52945;51.908;8.364;2024-01-30T06:45:07;7.60;71.60
66140;DHT22;52945;51.908;8.364;2024-01-30T06:48:08;7.60;71.60
66140;DHT22;52945;51.908;8.364;2024-01-30T06:51:09;7.60;72.10
66140;DHT22;52945;51.908;8.364;2024-01-30T06:54:09;7.60;72.70
66140;DHT22;52945;51.908;8.364;2024-01-30T06:57:10;7.60;72.50
66140;DHT22;52945;51.908;8.364;2024-01-30T07:00:12;7.60;72.20
66140;DHT22;52945;51.908;8.364;2024-01-30T07:03:14;7.60;71.90
66140;DHT22;52945;51.908;8.364;2024-01-30T07:06:14;7.60;71.60
66140;DHT22;52945;51.908;8.364;2024-01-30T07:09:15;7.60;71.40
66140;DHT22;52945;51.908;8.364;2024-01-30T07:12:15;7.60;71.40
66140;DHT22;52945;51.908;8.364;2024-01-30T07:15:16;7.50;71.70
66140;DHT22;52945;51.908;8.364;2024-01-30T07:18:20;7.60;71.70
66140;DHT22;52945;51.908;8.364;2024-01-30T07:21:20;7.50;71.40
66140;DHT22;52945;51.908;8.364;2024-01-30T07:24:25;7.60;71.40
66140;DHT22;52945;51.908;8.364;2024-01-30T07:27:26;7.60;71.30
66140;DHT22;52945;51.908;8.364;2024-01-30T07:30:26;7.60;71.30
66140;DHT22;52945;51.908;8.364;2024-01-30T07:33:27;7.60;71.20
66140;DHT22;52945;51.908;8.364;2024-01-30T07:36:28;7.60;71.10
66140;DHT22;52945;51.908;8.364;2024-01-30T07:39:28;7.60;71.10
66140;DHT22;52945;51.908;8.364;2024-01-30T07:42:29;7.60;71.10
66140;DHT22;52945;51.908;8.364;2024-01-30T07:45:29;7.60;71.10
66140;DHT22;52945;51.908;8.364;2024-01-30T07:48:33;7.60;71.10
66140;DHT22;52945;51.908;8.364;2024-01-30T07:51:34;7.60;71.00
66140;DHT22;52945;51.908;8.364;2024-01-30T07:55:02;7.50;71.00
66140;DHT22;52945;51.908;8.364;2024-01-30T08:02:04;7.60;71.20
66140;DHT22;52945;51.908;8.364;2024-01-30T08:05:04;7.60;71.40
66140;DHT22;52945;51.908;8.364;2024-01-30T08:08:05;7.60;71.60
66140;DHT22;52945;51.908;8.364;2024-01-30T08:11:06;7.60;71.80
66140;DHT22;52945;51.908;8.364;2024-01-30T08:14:07;7.70;72.20
66140;DHT22;52945;51.908;8.364;2024-01-30T08:17:08;7.70;72.60
66140;DHT22;52945;51.908;8.364;2024-01-30T08:20:09;7.70;73.40
66140;DHT22;52945;51.908;8.364;2024-01-30T08:23:11;7.80;74.00
66140;DHT22;52945;51.908;8.364;2024-01-30T08:26:12;7.80;74.20
66140;DHT22;52945;51.908;8.364;2024-01-30T08:29:13;7.80;74.00
66140;DHT22;52945;51.908;8.364;2024-01-30T08:32:13;7.90;73.70
66140;DHT22;52945;51.908;8.364;2024-01-30T08:35:14;7.90;73.60
66140;DHT22;52945;51.908;8.364;2024-01-30T08:38:16;7.90;73.80
66140;DHT22;52945;51.908;8.364;2024-01-30T08:41:16;8.00;74.30
66140;DHT22;52945;51.908;8.364;2024-01-30T08:44:17;8.10;74.40
66140;DHT22;52945;51.908;8.364;2024-01-30T08:47:18;8.20;74.50
66140;DHT22;52945;51.908;8.364;2024-01-30T08:50:19;8.20;74.60
66140;DHT22;52945;51.908;8.364;2024-01-30T08:53:19;8.40;75.10
66140;DHT22;52945;51.908;8.364;2024-01-30T08:56:20;8.40;75.50
66140;DHT22;52945;51.908;8.364;2024-01-30T08:59:20;8.60;75.40
66140;DHT22;52945;51.908;8.364;2024-01-30T09:02:21;8.70;75.70
66140;DHT22;52945;51.908;8.364;2024-01-30T09:05:22;8.80;75.60
66140;DHT22;52945;51.908;8.364;2024-01-30T09:08:22;8.90;75.70
66140;DHT22;52945;51.908;8.364;2024-01-30T09:11:23;9.10;75.70
66140;DHT22;52945;51.908;8.364;2024-01-30T09:14:24;9.30;75.50
66140;DHT22;52945;51.908;8.364;2024-01-30T09:17:24;9.40;74.90
66140;DHT22;52945;51.908;8.364;2024-01-30T09:20:25;9.60;74.40
66140;DHT22;52945;51.908;8.364;2024-01-30T09:23:27;9.70;74.10
66140;DHT22;52945;51.908;8.364;2024-01-30T09:26:28;9.80;73.90
66140;DHT22;52945;51.908;8.364;2024-01-30T09:29:29;9.90;73.90
66140;DHT22;52945;51.908;8.364;2024-01-30T09:32:29;9.90;73.50
66140;DHT22;52945;51.908;8.364;2024-01-30T09:35:30;10.10;73.40
66140;DHT22;52945;51.908;8.364;2024-01-30T09:38:30;10.20;73.10
66140;DHT22;52945;51.908;8.364;2024-01-30T09:41:33;10.30;72.60
66140;DHT22;52945;51.908;8.364;2024-01-30T09:44:38;10.40;72.50
66140;DHT22;52945;51.908;8.364;2024-01-30T09:47:41;10.40;72.40
66140;DHT22;52945;51.908;8.364;2024-01-30T09:50:45;10.50;72.20
66140;DHT22;52945;51.908;8.364;2024-01-30T09:53:45;10.60;72.10
66140;DHT22;52945;51.908;8.364;2024-01-30T09:56:47;10.70;71.80
66140;DHT22;52945;51.908;8.364;2024-01-30T09:59:48;10.70;71.60
66140;DHT22;52945;51.908;8.364;2024-01-30T10:02:49;10.80;71.40
66140;DHT22;52945;51.908;8.364;2024-01-30T10:05:51;10.80;71.30
66140;DHT22;52945;51.908;8.364;2024-01-30T10:08:54;10.90;71.10
66140;DHT22;52945;51.908;8.364;2024-01-30T10:11:55;11.00;71.10
66140;DHT22;52945;51.908;8.364;2024-01-30T10:14:56;11.00;70.90
66140;DHT22;52945;51.908;8.364;2024-01-30T10:17:57;11.10;70.80
66140;DHT22;52945;51.908;8.364;2024-01-30T10:20:59;11.20;70.70
66140;DHT22;52945;51.908;8.364;2024-01-30T10:23:59;11.30;70.50
66140;DHT22;52945;51.908;8.364;2024-01-30T10:27:00;11.30;70.20
66140;DHT22;52945;51.908;8.364;2024-01-30T10:30:01;11.40;70.00
66140;DHT22;52945;51.908;8.364;2024-01-30T10:33:01;11.40;69.90
66140;DHT22;52945;51.908;8.364;2024-01-30T10:36:04;11.50;69.50
66140;DHT22;52945;51.908;8.364;2024-01-30T10:39:06;11.70;69.30
66140;DHT22;52945;51.908;8.364;2024-01-30T10:42:11;11.70;69.10
66140;DHT22;52945;51.908;8.364;2024-01-30T10:45:13;11.80;68.90
66140;DHT22;52945;51.908;8.364;2024-01-30T10:48:17;11.90;68.70
66140;DHT22;52945;51.908;8.364;2024-01-30T10:51:20;12.10;68.50
66140;DHT22;52945;51.908;8.364;2024-01-30T10:54:22;12.20;68.50
66140;DHT22;52945;51.908;8.364;2024-01-30T10:57:26;12.30;68.10
66140;DHT22;52945;51.908;8.364;2024-01-30T11:00:27;12.30;68.10
66140;DHT22;52945;51.908;8.364;2024-01-30T11:03:28;12.40;67.80
66140;DHT22;52945;51.908;8.364;2024-01-30T11:06:29;12.50;67.60
66140;DHT22;52945;51.908;8.364;2024-01-30T11:09:30;12.60;67.30
66140;DHT22;52945;51.908;8.364;2024-01-30T11:12:40;12.60;67.10
66140;DHT22;52945;51.908;8.364;2024-01-30T11:15:43;12.60;67.20
66140;DHT22;52945;51.908;8.364;2024-01-30T11:18:50;12.70;67.20
66140;DHT22;52945;51.908;8.364;2024-01-30T11:21:55;12.70;67.20
66140;DHT22;52945;51.908;8.364;2024-01-30T11:24:57;12.70;67.00
66140;DHT22;52945;51.908;8.364;2024-01-30T11:27:59;12.70;67.20
66140;DHT22;52945;51.908;8.364;2024-01-30T11:31:06;12.80;67.60
66140;DHT22;52945;51.908;8.364;2024-01-30T11:34:14;12.80;67.60
66140;DHT22;52945;51.908;8.364;2024-01-30T11:37:15;12.80;67.50
66140;DHT22;52945;51.908;8.364;2024-01-30T11:40:16;12.90;67.40
66140;DHT22;52945;51.908;8.364;2024-01-30T11:43:17;12.90;67.30
66140;DHT22;52945;51.908;8.364;2024-01-30T11:46:19;12.90;66.70
66140;DHT22;52945;51.908;8.364;2024-01-30T11:49:20;13.00;66.60
66140;DHT22;52945;51.908;8.364;2024-01-30T11:52:20;13.00;66.60
66140;DHT22;52945;51.908;8.364;2024-01-30T11:55:21;13.10;66.50
66140;DHT22;52945;51.908;8.364;2024-01-30T11:58:25;13.20;66.50
66140;DHT22;52945;51.908;8.364;2024-01-30T12:01:27;13.20;66.50
66140;DHT22;52945;51.908;8.364;2024-01-30T12:04:29;13.20;66.40
66140;DHT22;52945;51.908;8.364;2024-01-30T12:07:30;13.30;66.60
66140;DHT22;52945;51.908;8.364;2024-01-30T12:10:30;13.30;66.60
66140;DHT22;52945;51.908;8.364;2024-01-30T12:13:31;13.30;66.50
66140;DHT22;52945;51.908;8.364;2024-01-30T12:16:32;13.40;66.70
66140;DHT22;52945;51.908;8.364;2024-01-30T12:19:33;13.40;66.70
66140;DHT22;52945;51.908;8.364;2024-01-30T12:22:38;13.40;66.70
66140;DHT22;52945;51.908;8.364;2024-01-30T12:25:39;13.40;66.70
66140;DHT22;52945;51.908;8.364;2024-01-30T12:28:48;13.50;66.70
66140;DHT22;52945;51.908;8.364;2024-01-30T12:31:53;13.50;66.70
66140;DHT22;52945;51.908;8.364;2024-01-30T12:34:57;13.50;66.80
66140;DHT22;52945;51.908;8.364;2024-01-30T12:37:57;13.60;66.80
66140;DHT22;52945;51.908;8.364;2024-01-30T12:40:58;13.60;66.80
66140;DHT22;52945;51.908;8.364;2024-01-30T12:43:59;13.70;66.60
66140;DHT22;52945;51.908;8.364;2024-01-30T12:47:03;13.70;66.60
66140;DHT22;52945;51.908;8.364;2024-01-30T12:50:04;13.70;66.60
66140;DHT22;52945;51.908;8.364;2024-01-30T12:53:05;13.70;66.60
66140;DHT22;52945;51.908;8.364;2024-01-30T12:56:06;13.70;66.40
66140;DHT22;52945;51.908;8.364;2024-01-30T12:59:06;13.70;66.50
66140;DHT22;52945;51.908;8.364;2024-01-30T13:02:07;13.70;66.60
66140;DHT22;52945;51.908;8.364;2024-01-30T13:05:08;13.80;66.80
66140;DHT22;52945;51.908;8.364;2024-01-30T13:08:09;13.70;66.90
66140;DHT22;52945;51.908;8.364;2024-01-30T13:11:09;13.80;66.90
66140;DHT22;52945;51.908;8.364;2024-01-30T13:14:10;13.80;66.90
66140;DHT22;52945;51.908;8.364;2024-01-30T13:17:10;13.80;67.00
66140;DHT22;52945;51.908;8.364;2024-01-30T13:20:11;13.80;67.00
66140;DHT22;52945;51.908;8.364;2024-01-30T13:23:12;13.80;67.10
66140;DHT22;52945;51.908;8.364;2024-01-30T13:26:13;13.90;67.20
66140;DHT22;52945;51.908;8.364;2024-01-30T13:29:13;13.80;67.20
66140;DHT22;52945;51.908;8.364;2024-01-30T13:32:15;13.80;67.10
66140;DHT22;52945;51.908;8.364;2024-01-30T13:35:16;13.90;67.20
66140;DHT22;52945;51.908;8.364;2024-01-30T13:38:17;13.80;67.30
66140;DHT22;52945;51.908;8.364;2024-01-30T13:41:28;13.90;67.50
66140;DHT22;52945;51.908;8.364;2024-01-30T13:44:30;13.90;67.50
66140;DHT22;52945;51.908;8.364;2024-01-30T13:47:30;13.90;67.70
66140;DHT22;52945;51.908;8.364;2024-01-30T13:50:31;13.90;68.00
66140;DHT22;52945;51.908;8.364;2024-01-30T13:53:33;13.90;68.30
66140;DHT22;52945;51.908;8.364;2024-01-30T13:56:34;14.00;68.40
66140;DHT22;52945;51.908;8.364;2024-01-30T13:59:34;14.00;68.60
66140;DHT22;52945;51.908;8.364;2024-01-30T14:02:35;14.00;68.60
66140;DHT22;52945;51.908;8.364;2024-01-30T14:05:35;14.00;68.60
66140;DHT22;52945;51.908;8.364;2024-01-30T14:08:36;14.00;68.60
66140;DHT22;52945;51.908;8.364;2024-01-30T14:11:37;14.00;68.50
66140;DHT22;52945;51.908;8.364;2024-01-30T14:14:37;14.00;68.50
66140;DHT22;52945;51.908;8.364;2024-01-30T14:17:38;14.00;68.50
66140;DHT22;52945;51.908;8.364;2024-01-30T14:20:38;14.10;68.40
66140;DHT22;52945;51.908;8.364;2024-01-30T14:23:39;14.10;68.40
66140;DHT22;52945;51.908;8.364;2024-01-30T14:26:40;14.10;68.20
66140;DHT22;52945;51.908;8.364;2024-01-30T14:29:40;14.10;68.20
66140;DHT22;52945;51.908;8.364;2024-01-30T14:32:43;14.10;68.30
66140;DHT22;52945;51.908;8.364;2024-01-30T14:35:45;14.10;68.10
66140;DHT22;52945;51.908;8.364;2024-01-30T14:38:45;14.10;68.10
66140;DHT22;52945;51.908;8.364;2024-01-30T14:41:46;14.20;68.10
66140;DHT22;52945;51.908;8.364;2024-01-30T14:44:46;14.10;68.10
66140;DHT22;52945;51.908;8.364;2024-01-30T14:47:47;14.10;68.20
66140;DHT22;52945;51.908;8.364;2024-01-30T14:50:47;14.10;68.30
66140;DHT22;52945;51.908;8.364;2024-01-30T14:53:48;14.10;68.50
66140;DHT22;52945;51.908;8.364;2024-01-30T14:56:49;14.10;68.40
66140;DHT22;52945;51.908;8.364;2024-01-30T14:59:49;14.10;68.50
66140;DHT22;52945;51.908;8.364;2024-01-30T15:02:50;14.20;68.40
66140;DHT22;52945;51.908;8.364;2024-01-30T15:05:51;14.20;68.20
66140;DHT22;52945;51.908;8.364;2024-01-30T15:08:52;14.20;68.10
66140;DHT22;52945;51.908;8.364;2024-01-30T15:11:53;14.10;68.20
66140;DHT22;52945;51.908;8.364;2024-01-30T15:14:53;14.10;68.20
66140;DHT22;52945;51.908;8.364;2024-01-30T15:17:54;14.10;68.10
66140;DHT22;52945;51.908;8.364;2024-01-30T15:20:55;14.10;68.00
66140;DHT22;52945;51.908;8.364;2024-01-30T15:23:55;14.10;68.10
66140;DHT22;52945;51.908;8.364;2024-01-30T15:26:56;14.10;68.00
66140;DHT22;52945;51.908;8.364;2024-01-30T15:29:56;14.10;68.00
66140;DHT22;52945;51.908;8.364;2024-01-30T15:32:57;14.10;68.00
66140;DHT22;52945;51.908;8.364;2024-01-30T15:36:01;14.00;68.10
66140;DHT22;52945;51.908;8.364;2024-01-30T15:39:02;14.00;68.20
66140;DHT22;52945;51.908;8.364;2024-01-30T15:42:03;14.00;68.20
66140;DHT22;52945;51.908;8.364;2024-01-30T15:45:04;14.00;68.30
66140;DHT22;52945;51.908;8.364;2024-01-30T15:48:05;14.10;68.40
66140;DHT22;52945;51.908;8.364;2024-01-30T15:51:07;14.10;68.30
66140;DHT22;52945;51.908;8.364;2024-01-30T15:54:08;14.10;68.20
66140;DHT22;52945;51.908;8.364;2024-01-30T15:57:08;14.10;68.20
66140;DHT22;52945;51.908;8.364;2024-01-30T16:00:11;14.10;68.00
66140;DHT22;52945;51.908;8.364;2024-01-30T16:03:12;14.00;68.10
66140;DHT22;52945;51.908;8.364;2024-01-30T16:06:16;14.00;67.90
66140;DHT22;52945;51.908;8.364;2024-01-30T16:09:17;14.00;67.90
66140;DHT22;52945;51.908;8.364;2024-01-30T16:12:17;13.90;68.00
66140;DHT22;52945;51.908;8.364;2024-01-30T16:15:18;13.90;68.00
66140;DHT22;52945;51.908;8.364;2024-01-30T16:18:19;13.90;68.00
66140;DHT22;52945;51.908;8.364;2024-01-30T16:21:19;13.90;68.00
66140;DHT22;52945;51.908;8.364;2024-01-30T16:24:20;13.90;67.90
66140;DHT22;52945;51.908;8.364;2024-01-30T16:27:23;13.80;67.90
66140;DHT22;52945;51.908;8.364;2024-01-30T16:30:24;13.80;67.90
66140;DHT22;52945;51.908;8.364;2024-01-30T16:33:24;13.70;68.00
66140;DHT22;52945;51.908;8.364;2024-01-30T16:36:25;13.70;67.90
66140;DHT22;52945;51.908;8.364;2024-01-30T16:39:25;13.70;67.90
66140;DHT22;52945;51.908;8.364;2024-01-30T16:42:26;13.60;68.00
66140;DHT22;52945;51.908;8.364;2024-01-30T16:45:26;13.70;68.00
66140;DHT22;52945;51.908;8.364;2024-01-30T16:48:27;13.70;68.10
66140;DHT22;52945;51.908;8.364;2024-01-30T16:51:28;13.70;68.00
66140;DHT22;52945;51.908;8.364;2024-01-30T16:54:28;13.60;68.10
66140;DHT22;52945;51.908;8.364;2024-01-30T16:57:29;13.50;67.90
66140;DHT22;52945;51.908;8.364;2024-01-30T17:00:30;13.50;67.20
66140;DHT22;52945;51.908;8.364;2024-01-30T17:03:30;13.40;67.10
66140;DHT22;52945;51.908;8.364;2024-01-30T17:06:31;13.50;66.90
66140;DHT22;52945;51.908;8.364;2024-01-30T17:09:32;13.50;66.90
66140;DHT22;52945;51.908;8.364;2024-01-30T17:12:32;13.50;66.90
66140;DHT22;52945;51.908;8.364;2024-01-30T17:15:33;13.40;66.40
66140;DHT22;52945;51.908;8.364;2024-01-30T17:18:35;13.40;66.30
66140;DHT22;52945;51.908;8.364;2024-01-30T17:21:36;13.40;66.40
66140;DHT22;52945;51.908;8.364;2024-01-30T17:24:37;13.30;66.00
66140;DHT22;52945;51.908;8.364;2024-01-30T17:27:38;13.30;65.40
66140;DHT22;52945;51.908;8.364;2024-01-30T17:30:38;13.30;65.50
66140;DHT22;52945;51.908;8.364;2024-01-30T17:33:39;13.20;65.00
66140;DHT22;52945;51.908;8.364;2024-01-30T17:36:41;13.00;63.90
66140;DHT22;52945;51.908;8.364;2024-01-30T17:39:42;12.90;62.90
66140;DHT22;52945;51.908;8.364;2024-01-30T17:42:43;12.80;61.20
66140;DHT22;52945;51.908;8.364;2024-01-30T17:45:44;12.70;60.20
66140;DHT22;52945;51.908;8.364;2024-01-30T17:48:44;12.70;60.20
66140;DHT22;52945;51.908;8.364;2024-01-30T17:51:46;12.70;59.90
66140;DHT22;52945;51.908;8.364;2024-01-30T17:54:48;12.60;59.80
66140;DHT22;52945;51.908;8.364;2024-01-30T17:57:48;12.60;59.60
66140;DHT22;52945;51.908;8.364;2024-01-30T18:00:49;12.50;59.50
66140;DHT22;52945;51.908;8.364;2024-01-30T18:03:50;12.40;59.10
66140;DHT22;52945;51.908;8.364;2024-01-30T18:06:53;12.40;59.50
66140;DHT22;52945;51.908;8.364;2024-01-30T18:09:54;12.30;59.10
66140;DHT22;52945;51.908;8.364;2024-01-30T18:12:55;12.20;59.20
66140;DHT22;52945;51.908;8.364;2024-01-30T18:15:59;12.20;59.40
66140;DHT22;52945;51.908;8.364;2024-01-30T18:19:00;12.20;59.50
66140;DHT22;52945;51.908;8.364;2024-01-30T18:22:00;12.20;58.80
66140;DHT22;52945;51.908;8.364;2024-01-30T18:25:01;12.20;58.80
66140;DHT22;52945;51.908;8.364;2024-01-30T18:28:01;12.10;59.40
66140;DHT22;52945;51.908;8.364;2024-01-30T18:31:02;12.10;59.40
66140;DHT22;52945;51.908;8.364;2024-01-30T18:34:03;12.10;59.10
66140;DHT22;52945;51.908;8.364;2024-01-30T18:37:04;12.10;59.30
66140;DHT22;52945;51.908;8.364;2024-01-30T18:40:05;12.00;58.90
66140;DHT22;52945;51.908;8.364;2024-01-30T18:43:06;12.00;59.10
66140;DHT22;52945;51.908;8.364;2024-01-30T18:46:08;12.00;59.10
66140;DHT22;52945;51.908;8.364;2024-01-30T18:49:09;12.10;59.40
66140;DHT22;52945;51.908;8.364;2024-01-30T18:52:09;12.10;59.50
66140;DHT22;52945;51.908;8.364;2024-01-30T18:55:10;12.10;59.30
66140;DHT22;52945;51.908;8.364;2024-01-30T18:58:10;12.00;59.20
66140;DHT22;52945;51.908;8.364;2024-01-30T19:01:11;12.00;59.40
66140;DHT22;52945;51.908;8.364;2024-01-30T19:04:12;12.10;59.40
66140;DHT22;52945;51.908;8.364;2024-01-30T19:07:12;12.10;59.80
66140;DHT22;52945;51.908;8.364;2024-01-30T19:10:13;12.10;59.60
66140;DHT22;52945;51.908;8.364;2024-01-30T19:13:13;12.00;59.70
66140;DHT22;52945;51.908;8.364;2024-01-30T19:16:15;12.00;60.10